Time;durP1;ratioP1;P1;durP2;ratioP2;P2;SDS_P1;SDS_P2;PMS_P1;PMS_P2;Temp;Humidity;BMP_temperature;BMP_pressure;BME280_temperature;BME280_humidity;BME280_pressure;Samples;Min_cycle;Max_cycle;Signal;HPM_P1;HPM_P2
2022/05/11 00:01:51;;;;;;;6.18;2.40;;;14.10;99.90;;;;;;5086799;28;20191;-72
2022/05/11 00:04:17;;;;;;;4.88;2.10;;;14.10;99.90;;;;;;5088468;28;20074;-70
2022/05/11 00:06:43;;;;;;;5.03;2.30;;;14.10;99.90;;;;;;5086726;28;20468;-74
2022/05/11 00:09:10;;;;;;;6.85;2.47;;;14.10;99.90;;;;;;5076145;28;20463;-76
2022/05/11 00:11:36;;;;;;;6.72;2.38;;;14.10;99.90;;;;;;5079907;28;20485;-74
2022/05/11 00:14:03;;;;;;;5.50;2.20;;;14.10;99.90;;;;;;5080726;28;20106;-74
2022/05/11 00:16:30;;;;;;;6.32;2.45;;;14.10;99.90;;;;;;5073234;28;20044;-76
2022/05/11 00:18:55;;;;;;;;;;;14.10;99.90;;;;;;5084325;28;20067;-77
2022/05/11 00:21:21;;;;;;;4.80;2.40;;;14.10;99.90;;;;;;5074573;28;19920;-77
2022/05/11 00:23:47;;;;;;;7.20;2.57;;;14.10;99.90;;;;;;5074278;28;20044;-77
2022/05/11 00:26:14;;;;;;;9.15;2.45;;;14.00;99.90;;;;;;5073241;28;20044;-75
2022/05/11 00:28:39;;;;;;;6.93;2.80;;;14.00;99.90;;;;;;5074227;28;20153;-74
2022/05/11 00:31:05;;;;;;;5.22;2.80;;;14.10;99.90;;;;;;5074076;28;20076;-75
2022/05/11 00:33:31;;;;;;;7.13;2.13;;;14.10;99.90;;;;;;5073109;28;20101;-76
2022/05/11 00:35:57;;;;;;;6.20;2.25;;;14.00;99.90;;;;;;5074168;28;20382;-78
2022/05/11 00:38:25;;;;;;;5.87;2.37;;;14.00;99.90;;;;;;5073871;28;20392;-77
2022/05/11 00:40:57;;;;;;;6.07;2.47;;;14.00;99.90;;;;;;5073793;28;20131;-77
2022/05/11 00:43:31;;;;;;;7.53;2.25;;;14.00;99.90;;;;;;5073618;28;20408;-77
2022/05/11 00:46:11;;;;;;;4.25;2.38;;;14.00;99.90;;;;;;5073519;28;20044;-78
2022/05/11 00:51:27;;;;;;;4.03;2.25;;;14.00;99.90;;;;;;5073760;28;20049;-79
2022/05/11 00:53:54;;;;;;;6.50;2.60;;;14.00;99.90;;;;;;5073708;28;20041;-76
2022/05/11 00:56:21;;;;;;;4.75;2.30;;;14.00;99.90;;;;;;5073692;28;20040;-76
2022/05/11 00:58:52;;;;;;;7.78;2.67;;;14.00;99.90;;;;;;5073483;28;20052;-78
2022/05/11 01:01:18;;;;;;;7.07;2.22;;;14.00;99.90;;;;;;5073937;28;20082;-76
2022/05/11 01:03:53;;;;;;;5.83;2.40;;;14.00;99.90;;;;;;5073517;28;20480;-76
2022/05/11 01:06:21;;;;;;;5.78;2.60;;;14.00;99.90;;;;;;5073396;28;20059;-76
2022/05/11 01:08:46;;;;;;;5.63;2.63;;;14.00;99.90;;;;;;5073445;28;20052;-76
2022/05/11 01:11:13;;;;;;;4.00;2.73;;;14.00;99.90;;;;;;5073669;28;20056;-75
2022/05/11 01:13:40;;;;;;;5.40;2.72;;;14.00;99.90;;;;;;5073850;28;20162;-75
2022/05/11 01:16:06;;;;;;;6.60;2.80;;;14.00;99.90;;;;;;5073398;28;20051;-77
2022/05/11 01:18:32;;;;;;;5.07;2.73;;;14.00;99.90;;;;;;5073463;28;20048;-74
2022/05/11 01:21:02;;;;;;;4.73;2.50;;;14.00;99.90;;;;;;5073384;28;20130;-76
2022/05/11 01:23:39;;;;;;;6.40;2.65;;;14.00;99.90;;;;;;5073400;28;20052;-77
2022/05/11 01:26:05;;;;;;;5.28;2.75;;;14.00;99.90;;;;;;5073757;28;20044;-76
2022/05/11 01:28:31;;;;;;;6.50;2.77;;;13.90;99.90;;;;;;5073333;28;20118;-76
2022/05/11 01:31:05;;;;;;;4.63;2.73;;;13.90;99.90;;;;;;5073332;28;20050;-78
2022/05/11 01:33:32;;;;;;;9.50;2.92;;;14.00;99.90;;;;;;5073270;28;20045;-76
2022/05/11 01:36:06;;;;;;;;;;;14.00;99.90;;;;;;5073287;28;20515;-75
2022/05/11 01:38:40;;;;;;;4.15;2.88;;;13.90;99.90;;;;;;5073154;28;20360;-77
2022/05/11 01:41:06;;;;;;;7.25;2.90;;;14.00;99.90;;;;;;5073071;28;20048;-74
2022/05/11 01:43:35;;;;;;;5.78;3.30;;;14.00;99.90;;;;;;5073232;28;20048;-74
2022/05/11 01:46:01;;;;;;;8.23;3.03;;;14.00;99.90;;;;;;5073090;28;20407;-75
2022/05/11 01:48:27;;;;;;;11.13;3.00;;;14.00;99.90;;;;;;5073024;28;20123;-75
2022/05/11 01:50:54;;;;;;;4.50;2.50;;;14.00;99.90;;;;;;5072873;28;20086;-78
2022/05/11 01:53:19;;;;;;;6.43;3.03;;;14.00;99.90;;;;;;5072973;28;20285;-77
2022/05/11 01:55:45;;;;;;;4.75;2.83;;;14.00;99.90;;;;;;5072877;28;20045;-76
2022/05/11 01:58:13;;;;;;;5.13;3.10;;;14.00;99.90;;;;;;5073872;28;20091;-74
2022/05/11 02:00:40;;;;;;;4.97;3.25;;;14.00;99.90;;;;;;5076412;28;20045;-76
2022/05/11 02:03:06;;;;;;;8.77;3.30;;;13.90;99.90;;;;;;5076618;28;20055;-76
2022/05/11 02:08:16;;;;;;;6.30;3.33;;;13.90;99.90;;;;;;5076739;28;20164;-77
2022/05/11 02:10:42;;;;;;;12.27;3.57;;;13.90;99.90;;;;;;5076250;28;20124;-75
2022/05/11 02:13:08;;;;;;;6.70;3.20;;;13.90;99.90;;;;;;5076413;28;20048;-75
2022/05/11 02:15:36;;;;;;;6.78;3.28;;;14.00;99.90;;;;;;5076348;28;20501;-75
2022/05/11 02:18:01;;;;;;;7.32;3.53;;;14.00;99.90;;;;;;5076484;28;20095;-76
2022/05/11 02:20:27;;;;;;;6.50;3.40;;;14.00;99.90;;;;;;5076358;28;20090;-78
2022/05/11 02:22:52;;;;;;;6.47;3.93;;;14.00;99.90;;;;;;5076487;28;20039;-78
2022/05/11 02:25:19;;;;;;;12.27;4.18;;;13.90;99.90;;;;;;5075012;28;20102;-75
2022/05/11 02:27:46;;;;;;;8.52;3.75;;;14.00;99.90;;;;;;5076132;28;20400;-76
2022/05/11 02:30:16;;;;;;;7.43;3.67;;;14.00;99.90;;;;;;5075786;28;20531;-76
2022/05/11 02:32:42;;;;;;;6.40;3.90;;;14.00;99.90;;;;;;5075944;28;20177;-78
2022/05/11 02:35:16;;;;;;;8.53;4.17;;;14.00;99.90;;;;;;5075797;28;20127;-76
2022/05/11 02:37:57;;;;;;;6.82;3.42;;;14.00;99.90;;;;;;5076024;28;20080;-76
2022/05/11 02:40:26;;;;;;;6.18;3.20;;;14.00;99.90;;;;;;5075973;28;20041;-74
2022/05/11 02:42:52;;;;;;;8.88;3.15;;;14.00;99.90;;;;;;5075782;28;20045;-76
2022/05/11 02:45:18;;;;;;;5.93;3.30;;;14.00;99.90;;;;;;5075846;28;20056;-77
2022/05/11 02:47:45;;;;;;;5.38;2.78;;;14.00;99.90;;;;;;5076009;28;20045;-76
2022/05/11 02:50:14;;;;;;;7.00;3.25;;;14.00;99.90;;;;;;5075792;28;20050;-75
2022/05/11 02:52:39;;;;;;;8.68;2.80;;;14.00;99.90;;;;;;5075669;28;20108;-77
2022/05/11 02:55:05;;;;;;;6.10;2.73;;;14.00;99.90;;;;;;5075786;28;20130;-75
2022/05/11 02:57:32;;;;;;;6.72;2.60;;;14.00;99.90;;;;;;5075721;28;20051;-76
2022/05/11 03:00:01;;;;;;;8.00;2.60;;;14.00;99.90;;;;;;5075571;28;20048;-77
2022/05/11 03:02:27;;;;;;;3.47;2.30;;;14.00;99.90;;;;;;5075624;28;20076;-76
2022/05/11 03:04:53;;;;;;;8.00;3.05;;;14.00;99.90;;;;;;5075643;28;20094;-74
2022/05/11 03:07:18;;;;;;;5.45;2.42;;;14.00;99.90;;;;;;5075440;28;20044;-76
2022/05/11 03:09:44;;;;;;;6.10;2.60;;;14.00;99.90;;;;;;5075327;28;20048;-77
2022/05/11 03:12:11;;;;;;;5.40;2.63;;;14.00;99.90;;;;;;5075353;28;20087;-77
2022/05/11 03:14:38;;;;;;;9.70;3.00;;;14.00;99.90;;;;;;5075704;28;20049;-76
2022/05/11 03:17:03;;;;;;;6.22;2.33;;;14.00;99.90;;;;;;5075211;28;20038;-77
2022/05/11 03:19:29;;;;;;;7.57;3.08;;;14.00;99.90;;;;;;5075030;28;20442;-77
2022/05/11 03:21:55;;;;;;;5.53;2.65;;;14.00;99.90;;;;;;5075261;28;20040;-76
2022/05/11 03:24:21;;;;;;;5.22;2.28;;;14.00;99.90;;;;;;5075102;28;20491;-76
2022/05/11 03:26:47;;;;;;;5.47;2.28;;;14.00;99.90;;;;;;5075033;28;20055;-76
2022/05/11 03:29:12;;;;;;;6.72;2.50;;;14.00;99.90;;;;;;5075101;28;20438;-75
2022/05/11 03:31:39;;;;;;;7.88;2.63;;;14.00;99.90;;;;;;5074991;28;20041;-77
2022/05/11 03:36:50;;;;;;;7.35;2.33;;;14.00;99.90;;;;;;5074965;28;19932;-76
2022/05/11 03:39:17;;;;;;;4.93;2.50;;;14.10;99.90;;;;;;5074834;28;20056;-77
2022/05/11 03:41:45;;;;;;;5.63;2.45;;;14.10;99.90;;;;;;5074808;28;20077;-77
2022/05/11 03:44:11;;;;;;;7.13;2.88;;;14.10;99.90;;;;;;5074688;28;20052;-76
2022/05/11 03:46:37;;;;;;;6.57;2.42;;;14.10;99.90;;;;;;5074680;28;20049;-74
2022/05/11 03:49:03;;;;;;;4.68;2.60;;;14.00;99.90;;;;;;5074574;28;20369;-75
2022/05/11 03:51:28;;;;;;;5.38;2.75;;;14.00;99.90;;;;;;5074613;28;20040;-75
2022/05/11 03:53:54;;;;;;;4.10;2.60;;;14.10;99.90;;;;;;5074467;28;20056;-77
2022/05/11 03:56:19;;;;;;;9.90;2.53;;;14.00;99.90;;;;;;5074547;28;20040;-75
2022/05/11 03:58:45;;;;;;;5.33;2.70;;;14.10;99.90;;;;;;5074505;28;20047;-76
2022/05/11 04:01:12;;;;;;;6.60;2.67;;;14.10;99.90;;;;;;5073414;28;20109;-76
2022/05/11 04:03:38;;;;;;;6.90;2.58;;;14.10;99.90;;;;;;5074317;28;20044;-77
2022/05/11 04:06:04;;;;;;;7.80;2.40;;;14.10;99.90;;;;;;5074736;28;20119;-75
2022/05/11 04:08:30;;;;;;;4.57;2.63;;;14.10;99.90;;;;;;5074241;28;20083;-77
2022/05/11 04:10:55;;;;;;;9.83;2.73;;;14.00;99.90;;;;;;5074018;28;20459;-75
2022/05/11 04:13:21;;;;;;;6.25;3.15;;;14.00;99.90;;;;;;5074396;28;20052;-74
2022/05/11 04:15:52;;;;;;;7.87;2.80;;;14.00;99.90;;;;;;5074306;28;20040;-76
2022/05/11 04:18:19;;;;;;;9.27;2.53;;;14.10;99.90;;;;;;5074148;28;20044;-75
2022/05/11 04:20:44;;;;;;;10.50;2.95;;;14.10;99.90;;;;;;5073415;28;20040;-78
2022/05/11 04:23:10;;;;;;;4.43;2.63;;;14.10;99.90;;;;;;5073708;28;20120;-72
2022/05/11 04:25:36;;;;;;;8.80;2.58;;;14.10;99.90;;;;;;5074072;28;20052;-76
2022/05/11 04:28:06;;;;;;;6.57;2.67;;;14.10;99.90;;;;;;5073962;28;20366;-77
2022/05/11 04:30:31;;;;;;;8.02;2.85;;;14.10;99.90;;;;;;5073414;28;20550;-75
2022/05/11 04:33:00;;;;;;;5.17;2.30;;;14.10;99.90;;;;;;5073753;28;20049;-77
2022/05/11 04:35:30;;;;;;;5.50;2.97;;;14.10;99.90;;;;;;5073765;28;20059;-77
2022/05/11 04:37:59;;;;;;;6.07;2.65;;;14.10;99.90;;;;;;5073543;28;20515;-76
2022/05/11 04:40:26;;;;;;;6.90;3.28;;;14.10;99.90;;;;;;5073733;28;20044;-76
2022/05/11 04:42:52;;;;;;;7.53;3.22;;;14.20;99.90;;;;;;5073671;28;20084;-75
2022/05/11 04:45:18;;;;;;;7.27;3.10;;;14.20;99.90;;;;;;5073672;28;20080;-75
2022/05/11 04:47:44;;;;;;;9.07;3.30;;;14.20;99.90;;;;;;5073753;28;20036;-77
2022/05/11 04:50:10;;;;;;;9.30;3.30;;;14.20;99.90;;;;;;5074059;28;20055;-76
2022/05/11 04:52:36;;;;;;;8.82;3.22;;;14.20;99.90;;;;;;5073379;28;20080;-77
2022/05/11 04:55:03;;;;;;;8.60;3.88;;;14.20;99.90;;;;;;5073716;28;20049;-76
2022/05/11 04:57:28;;;;;;;;;;;14.20;99.90;;;;;;5073963;28;20132;-75
2022/05/11 04:59:54;;;;;;;9.35;4.30;;;14.30;99.90;;;;;;5073232;28;19964;-76
2022/05/11 05:02:23;;;;;;;10.10;5.32;;;14.30;99.90;;;;;;5073441;28;20037;-76
2022/05/11 05:04:49;;;;;;;10.77;6.30;;;14.40;99.90;;;;;;5073609;28;20135;-77
2022/05/11 05:07:15;;;;;;;11.68;6.15;;;14.40;99.90;;;;;;5073332;28;20501;-75
2022/05/11 05:09:41;;;;;;;13.18;6.88;;;14.50;99.90;;;;;;5073509;28;20139;-75
2022/05/11 05:12:08;;;;;;;11.30;6.30;;;14.50;99.90;;;;;;5073125;28;20052;-77
2022/05/11 05:14:34;;;;;;;;;;;14.50;99.90;;;;;;5073748;28;20045;-74
2022/05/11 05:17:11;;;;;;;13.63;6.75;;;14.50;99.90;;;;;;5073333;28;20065;-78
2022/05/11 05:19:42;;;;;;;15.05;7.22;;;14.60;99.90;;;;;;5073443;28;20041;-77
2022/05/11 05:22:08;;;;;;;10.43;6.30;;;14.70;99.90;;;;;;5073332;28;20048;-76
2022/05/11 05:24:34;;;;;;;13.75;6.40;;;14.70;99.90;;;;;;5073308;28;20049;-77
2022/05/11 05:27:00;;;;;;;19.65;7.10;;;14.80;99.90;;;;;;5073117;28;20041;-77
2022/05/11 05:32:10;;;;;;;9.45;5.10;;;14.90;99.90;;;;;;5073281;28;20506;-75
2022/05/11 05:34:36;;;;;;;14.40;5.80;;;14.90;99.90;;;;;;5076563;28;20133;-76
2022/05/11 05:37:02;;;;;;;8.97;5.30;;;15.00;99.90;;;;;;5077077;28;20407;-76
2022/05/11 05:39:28;;;;;;;11.23;5.38;;;15.00;99.90;;;;;;5077071;28;20282;-74
2022/05/11 05:41:54;;;;;;;9.02;5.28;;;15.10;99.90;;;;;;5077005;28;20106;-78
2022/05/11 05:44:20;;;;;;;7.90;5.00;;;15.10;99.90;;;;;;5077017;28;20106;-73
2022/05/11 05:46:46;;;;;;;10.40;5.13;;;15.10;99.90;;;;;;5076828;28;20048;-74
2022/05/11 05:49:12;;;;;;;12.68;5.18;;;15.10;99.90;;;;;;5077445;28;20479;-75
2022/05/11 05:51:39;;;;;;;11.07;6.00;;;15.20;99.90;;;;;;5076930;28;20047;-74
2022/05/11 05:54:05;;;;;;;9.00;6.05;;;15.20;99.90;;;;;;5077281;28;20405;-75
2022/05/11 05:56:32;;;;;;;8.75;6.03;;;15.30;99.90;;;;;;5076983;28;20048;-76
2022/05/11 05:59:01;;;;;;;12.00;6.43;;;15.30;99.90;;;;;;5076736;28;20482;-77
2022/05/11 06:01:27;;;;;;;9.60;6.22;;;15.40;99.90;;;;;;5076341;28;20094;-75
2022/05/11 06:03:53;;;;;;;11.33;6.07;;;15.40;99.90;;;;;;5076715;28;20070;-74
2022/05/11 06:06:20;;;;;;;8.57;4.73;;;15.50;99.90;;;;;;5076353;28;20055;-74
2022/05/11 06:08:45;;;;;;;8.45;4.22;;;15.50;99.90;;;;;;5076476;28;20045;-75
2022/05/11 06:11:11;;;;;;;8.63;4.37;;;15.60;99.90;;;;;;5076170;28;20049;-73
2022/05/11 06:13:38;;;;;;;7.10;3.90;;;15.60;99.90;;;;;;5076528;28;20475;-74
2022/05/11 06:16:09;;;;;;;9.70;3.85;;;15.70;99.90;;;;;;5076586;28;20048;-77
2022/05/11 06:18:36;;;;;;;8.23;4.05;;;15.80;99.90;;;;;;5076504;28;20472;-76
2022/05/11 06:21:02;;;;;;;6.43;3.70;;;15.90;99.90;;;;;;5074346;28;20056;-76
2022/05/11 06:23:27;;;;;;;7.67;3.87;;;15.90;99.90;;;;;;5075387;28;20044;-75
2022/05/11 06:25:53;;;;;;;7.35;3.53;;;16.00;99.90;;;;;;5075581;28;20066;-76
2022/05/11 06:28:19;;;;;;;9.33;3.57;;;16.10;99.90;;;;;;5075364;28;20040;-76
2022/05/11 06:30:46;;;;;;;7.93;3.63;;;16.10;99.90;;;;;;5075831;28;20048;-76
2022/05/11 06:33:12;;;;;;;7.43;3.67;;;16.10;99.90;;;;;;5075969;28;20037;-76
2022/05/11 06:35:37;;;;;;;7.67;3.27;;;16.30;99.90;;;;;;5076238;28;20040;-77
2022/05/11 06:38:05;;;;;;;8.30;3.33;;;16.30;99.90;;;;;;5075870;28;20083;-76
2022/05/11 06:40:30;;;;;;;7.95;2.97;;;16.40;99.90;;;;;;5075561;28;20048;-76
2022/05/11 06:42:56;;;;;;;7.00;3.33;;;16.50;99.90;;;;;;5076008;28;20469;-76
2022/05/11 06:45:23;;;;;;;5.60;2.90;;;16.60;99.90;;;;;;5075258;28;20128;-76
2022/05/11 06:47:49;;;;;;;8.23;2.60;;;16.70;99.90;;;;;;5075830;28;20121;-76
2022/05/11 06:50:15;;;;;;;9.50;2.28;;;16.70;99.90;;;;;;5075819;28;20044;-77
2022/05/11 06:52:41;;;;;;;9.70;2.70;;;16.80;99.90;;;;;;5075322;28;20452;-77
2022/05/11 07:00:36;;;;;;;6.00;2.40;;;17.20;99.90;;;;;;5075620;28;20044;-77
2022/05/11 07:03:02;;;;;;;6.73;2.30;;;17.30;99.90;;;;;;5075629;28;20040;-76
2022/05/11 07:05:29;;;;;;;6.63;2.50;;;17.40;99.90;;;;;;5066918;28;20049;-77
2022/05/11 07:07:55;;;;;;;4.95;2.45;;;17.50;99.90;;;;;;5055795;28;20182;-77
2022/05/11 07:10:20;;;;;;;8.03;3.30;;;17.80;99.90;;;;;;5055600;28;20483;-75
2022/05/11 07:12:47;;;;;;;9.83;2.47;;;18.00;99.90;;;;;;5055866;28;20048;-75
2022/05/11 07:15:15;;;;;;;5.65;2.10;;;18.30;99.90;;;;;;5055830;28;20374;-75
2022/05/11 07:17:47;;;;;;;7.00;2.28;;;18.30;99.90;;;;;;5055424;28;20056;-76
2022/05/11 07:20:19;;;;;;;7.75;2.50;;;18.50;99.90;;;;;;5055422;28;20059;-75
2022/05/11 07:22:45;;;;;;;4.55;1.70;;;18.70;99.90;;;;;;5055292;28;20059;-75
2022/05/11 07:25:13;;;;;;;5.13;1.90;;;18.80;99.90;;;;;;5055172;28;20130;-74
2022/05/11 07:27:39;;;;;;;8.27;1.90;;;19.00;99.90;;;;;;5055252;28;20102;-75
2022/05/11 07:30:08;;;;;;;12.27;2.08;;;18.90;99.90;;;;;;5055398;28;20052;-76
2022/05/11 07:32:34;;;;;;;10.98;1.90;;;19.10;99.90;;;;;;5054813;28;20037;-75
2022/05/11 07:34:59;;;;;;;8.67;2.00;;;19.30;99.90;;;;;;5059602;28;20102;-75
2022/05/11 07:37:25;;;;;;;4.73;1.80;;;19.50;99.90;;;;;;5074972;28;20480;-75
2022/05/11 07:39:51;;;;;;;6.97;1.63;;;19.50;99.90;;;;;;5074907;28;20473;-75
2022/05/11 07:42:17;;;;;;;8.30;1.90;;;19.60;99.90;;;;;;5075093;28;20346;-74
2022/05/11 07:44:43;;;;;;;8.33;1.30;;;19.70;99.90;;;;;;5056136;28;20068;-74
2022/05/11 07:47:10;;;;;;;7.90;1.83;;;19.60;99.90;;;;;;5054417;28;20511;-75
2022/05/11 07:49:37;;;;;;;5.65;1.63;;;19.50;99.90;;;;;;5054927;28;20122;-74
2022/05/11 07:52:03;;;;;;;8.57;1.92;;;19.60;99.90;;;;;;5054696;28;20044;-75
2022/05/11 07:54:30;;;;;;;10.00;1.80;;;19.60;99.90;;;;;;5054605;28;20056;-75
2022/05/11 07:59:52;;;;;;;4.18;1.55;;;19.50;99.90;;;;;;5054641;28;20057;-74
2022/05/11 08:02:19;;;;;;;5.47;1.30;;;19.50;99.90;;;;;;5054755;28;20393;-74
2022/05/11 08:04:45;;;;;;;4.25;1.40;;;19.50;99.90;;;;;;5054473;28;20041;-76
2022/05/11 08:07:14;;;;;;;7.70;1.60;;;19.40;99.90;;;;;;5054447;28;20048;-77
2022/05/11 08:09:40;;;;;;;4.95;1.25;;;19.40;99.90;;;;;;5054359;28;20151;-74
2022/05/11 08:12:07;;;;;;;5.00;1.83;;;19.40;99.90;;;;;;5054023;28;20186;-75
2022/05/11 08:14:32;;;;;;;10.63;1.13;;;19.40;99.90;;;;;;5053119;28;20552;-74
2022/05/11 08:16:58;;;;;;;4.47;1.40;;;19.30;99.90;;;;;;5054432;28;20147;-75
2022/05/11 08:19:25;;;;;;;2.80;0.97;;;19.10;99.70;;;;;;5054174;28;20502;-75
2022/05/11 08:21:52;;;;;;;3.78;0.95;;;19.00;99.90;;;;;;5054167;28;20041;-74
2022/05/11 08:24:18;;;;;;;;;;;19.00;99.90;;;;;;5053444;28;20051;-74
2022/05/11 08:26:46;;;;;;;7.18;0.98;;;19.20;99.90;;;;;;5053971;28;20019;-75
2022/05/11 08:33:18;;;;;;;4.28;1.08;;;19.30;99.60;;;;;;5054016;28;20049;-74
2022/05/11 08:34:43;;;;;;;2.95;0.90;;;19.30;99.50;;;;;;5055777;28;20072;-74
2022/05/11 08:37:09;;;;;;;3.13;0.90;;;19.40;98.20;;;;;;5073358;28;20123;-75
2022/05/11 08:39:35;;;;;;;4.18;1.20;;;19.40;98.30;;;;;;5073764;28;20032;-75
2022/05/11 08:42:03;;;;;;;3.58;1.00;;;19.40;98.10;;;;;;5072996;28;20076;-75
2022/05/11 08:44:32;;;;;;;5.03;1.17;;;19.30;97.50;;;;;;5073614;28;20045;-75
2022/05/11 08:47:13;;;;;;;7.72;1.00;;;19.50;98.90;;;;;;5074170;28;20098;-75
2022/05/11 08:49:52;;;;;;;3.70;1.05;;;19.40;97.60;;;;;;5073717;28;20044;-75
2022/05/11 08:52:50;;;;;;;4.38;0.80;;;19.30;97.20;;;;;;5073671;28;20044;-75
2022/05/11 08:55:47;;;;;;;1.85;0.75;;;19.40;97.80;;;;;;5066203;28;20052;-75
2022/05/11 08:58:21;;;;;;;4.57;1.60;;;19.70;97.80;;;;;;5073590;28;20044;-75
2022/05/11 09:00:49;;;;;;;7.75;0.80;;;20.00;97.30;;;;;;5073714;28;20041;-75
2022/05/11 09:03:31;;;;;;;3.10;0.95;;;20.30;96.60;;;;;;5073087;28;20037;-74
2022/05/11 09:06:01;;;;;;;6.65;1.15;;;20.30;95.70;;;;;;5073384;28;20056;-75
2022/05/11 09:08:32;;;;;;;7.05;1.00;;;20.30;96.40;;;;;;5073320;28;20044;-80
2022/05/11 09:10:58;;;;;;;4.80;1.13;;;20.60;95.10;;;;;;5073363;28;20094;-74
2022/05/11 09:13:27;;;;;;;6.45;1.00;;;20.70;95.70;;;;;;5073555;28;20051;-75
2022/05/11 09:15:53;;;;;;;3.72;0.82;;;20.70;94.90;;;;;;5073110;28;20062;-75
2022/05/11 09:18:20;;;;;;;7.07;1.03;;;20.90;95.20;;;;;;5073530;28;20547;-76
2022/05/11 09:20:48;;;;;;;3.15;1.00;;;21.00;93.80;;;;;;5073191;28;20049;-74
2022/05/11 09:23:14;;;;;;;4.50;0.90;;;21.00;93.90;;;;;;5073257;28;20499;-75
2022/05/11 09:26:03;;;;;;;6.53;0.80;;;21.00;94.20;;;;;;5073367;28;20048;-77
2022/05/11 09:28:32;;;;;;;5.07;0.90;;;21.00;93.60;;;;;;5073316;28;20101;-76
2022/05/11 09:31:06;;;;;;;3.35;0.80;;;21.10;93.20;;;;;;5072970;28;20039;-76
2022/05/11 09:33:40;;;;;;;4.70;0.90;;;21.20;93.80;;;;;;5073168;28;20123;-79
2022/05/11 09:36:09;;;;;;;2.92;0.80;;;21.30;93.70;;;;;;5073291;28;20040;-73
2022/05/11 09:38:42;;;;;;;2.85;0.95;;;21.20;93.50;;;;;;5073283;28;20044;-72
2022/05/11 09:41:27;;;;;;;8.20;0.88;;;21.30;93.60;;;;;;5072781;28;20041;-72
2022/05/11 09:43:58;;;;;;;4.38;0.80;;;21.40;93.30;;;;;;5073040;28;20481;-75
2022/05/11 09:46:26;;;;;;;3.50;0.82;;;21.30;91.20;;;;;;5073124;28;20048;-76
2022/05/11 09:49:05;;;;;;;8.98;0.98;;;21.30;91.60;;;;;;5073052;28;20049;-76
2022/05/11 09:51:44;;;;;;;7.00;1.10;;;21.30;90.90;;;;;;5072745;28;20047;-76
2022/05/11 09:54:48;;;;;;;4.65;0.90;;;21.20;90.20;;;;;;5073478;28;20051;-75
2022/05/11 09:57:28;;;;;;;7.35;1.00;;;21.30;91.30;;;;;;5072992;28;20461;-76
2022/05/11 10:00:25;;;;;;;3.97;0.95;;;21.20;89.80;;;;;;5072895;28;20055;-76
2022/05/11 10:02:55;;;;;;;6.20;1.10;;;21.20;89.80;;;;;;5073040;28;20052;-76
2022/05/11 10:05:39;;;;;;;7.32;0.90;;;21.20;90.70;;;;;;5072996;28;20052;-77
2022/05/11 10:08:15;;;;;;;5.72;0.70;;;21.30;90.50;;;;;;5072966;28;20048;-77
2022/05/11 10:10:52;;;;;;;3.85;0.98;;;21.50;90.70;;;;;;5073165;28;20048;-76
2022/05/11 10:13:20;;;;;;;;;;;21.70;90.60;;;;;;5073341;28;20511;-75
2022/05/11 10:24:56;;;;;;;2.65;0.82;;;21.70;90.10;;;;;;5054339;28;20053;-76
2022/05/11 10:27:51;;;;;;;11.85;1.00;;;21.80;90.20;;;;;;5075031;28;20056;-77
2022/05/11 10:30:37;;;;;;;5.30;1.27;;;21.90;90.90;;;;;;5074203;28;20105;-80
2022/05/11 10:33:35;;;;;;;6.72;1.10;;;22.00;89.70;;;;;;5076269;28;20047;-81
2022/05/11 10:36:09;;;;;;;2.97;0.80;;;22.10;87.10;;;;;;5067925;28;20527;-78
2022/05/11 10:38:43;;;;;;;3.05;1.25;;;22.00;88.20;;;;;;5075572;28;20052;-79
2022/05/11 10:41:47;;;;;;;3.40;1.00;;;22.10;89.80;;;;;;5076128;28;20094;-79
2022/05/11 10:44:16;;;;;;;5.07;0.88;;;22.30;89.80;;;;;;5076198;28;20051;-78
2022/05/11 10:47:19;;;;;;;5.22;1.00;;;22.40;89.20;;;;;;5075906;28;20052;-79
2022/05/11 10:50:18;;;;;;;3.83;0.80;;;22.20;88.40;;;;;;5075099;28;20091;-79
2022/05/11 10:53:39;;;;;;;31.42;3.20;;;22.30;88.20;;;;;;5061538;28;20385;-78
2022/05/11 10:56:39;;;;;;;2.10;0.85;;;22.50;89.40;;;;;;5070135;28;20197;-77
2022/05/11 10:59:33;;;;;;;2.13;0.60;;;22.50;87.10;;;;;;5076189;28;20044;-81
2022/05/11 11:02:47;;;;;;;3.00;1.10;;;22.60;88.70;;;;;;5058229;28;20060;-78
2022/05/11 11:09:06;;;;;;;11.25;0.98;;;22.80;87.70;;;;;;5009275;28;20049;-74
2022/05/11 11:11:44;;;;;;;0.65;0.52;;;23.00;86.80;;;;;;5075301;28;20387;-78
2022/05/11 11:14:11;;;;;;;0.20;0.20;;;23.10;87.70;;;;;;5074429;28;20189;-78
2022/05/11 11:16:40;;;;;;;1.20;0.22;;;23.20;87.60;;;;;;5073369;28;20048;-77
2022/05/11 11:19:08;;;;;;;0.20;0.20;;;23.10;85.70;;;;;;5074634;28;20052;-78
2022/05/11 11:21:38;;;;;;;0.20;0.20;;;23.20;86.10;;;;;;5075724;28;20036;-76
2022/05/11 11:24:25;;;;;;;0.47;0.20;;;23.20;86.40;;;;;;5075266;28;20045;-76
2022/05/11 11:26:56;;;;;;;0.50;0.50;;;23.20;85.70;;;;;;5075406;28;20045;-76
2022/05/11 11:29:33;;;;;;;0.30;0.30;;;23.00;86.30;;;;;;5075014;28;20059;-77
2022/05/11 11:32:15;;;;;;;0.20;0.20;;;23.10;86.80;;;;;;5074796;28;20093;-77
2022/05/11 11:34:48;;;;;;;0.20;0.20;;;23.30;85.10;;;;;;5075447;28;20169;-76
2022/05/11 11:37:36;;;;;;;4.38;2.95;;;23.30;85.80;;;;;;5075415;28;20049;-76
2022/05/11 11:40:21;;;;;;;0.20;0.20;;;23.40;85.60;;;;;;5074084;28;20052;-77
2022/05/11 11:42:47;;;;;;;0.20;0.20;;;23.60;86.60;;;;;;5074974;28;20041;-76
2022/05/11 11:45:26;;;;;;;0.20;0.20;;;23.80;85.90;;;;;;5074895;28;20050;-78
2022/05/11 11:48:05;;;;;;;0.20;0.20;;;23.80;86.60;;;;;;5073638;28;20055;-76
2022/05/11 11:50:55;;;;;;;0.20;0.20;;;23.50;84.70;;;;;;5074778;28;20045;-76
2022/05/11 11:53:32;;;;;;;0.20;0.20;;;23.60;85.20;;;;;;5074959;28;20048;-77
2022/05/11 11:56:24;;;;;;;0.20;0.20;;;23.80;85.60;;;;;;5074695;28;20613;-77
2022/05/11 11:59:09;;;;;;;0.20;0.20;;;23.80;84.20;;;;;;5055085;28;20542;-77
2022/05/11 12:01:49;;;;;;;0.20;0.20;;;23.90;85.20;;;;;;5074477;28;20075;-77
2022/05/11 12:04:25;;;;;;;0.20;0.20;;;24.00;84.50;;;;;;5074350;28;20044;-77
2022/05/11 12:15:30;;;;;;;0.25;0.25;;;24.00;84.70;;;;;;5074422;28;20053;-77
2022/05/11 12:17:55;;;;;;;0.20;0.20;;;24.00;83.70;;;;;;5074191;28;20066;-79
2022/05/11 12:20:21;;;;;;;0.30;0.30;;;24.00;82.50;;;;;;5074285;28;20044;-78
2022/05/11 12:22:49;;;;;;;0.20;0.20;;;24.00;82.50;;;;;;5074571;28;20050;-78
2022/05/11 12:25:38;;;;;;;1.05;1.05;;;24.20;83.20;;;;;;5073129;28;20586;-77
2022/05/11 12:28:35;;;;;;;0.20;0.20;;;24.20;82.50;;;;;;5074126;28;20438;-78
2022/05/11 12:31:02;;;;;;;0.20;0.20;;;23.80;82.60;;;;;;5074059;28;20036;-77
2022/05/11 12:33:35;;;;;;;0.35;0.35;;;23.60;83.80;;;;;;5074112;28;20080;-79
2022/05/11 12:36:02;;;;;;;0.20;0.20;;;23.80;83.50;;;;;;5074194;28;20059;-75
2022/05/11 12:38:34;;;;;;;0.20;0.20;;;24.00;84.30;;;;;;5073794;28;20049;-76
2022/05/11 12:41:08;;;;;;;0.20;0.20;;;24.20;82.20;;;;;;5073690;28;20113;-77
2022/05/11 12:43:36;;;;;;;0.30;0.30;;;24.20;82.60;;;;;;5073807;28;20036;-76
2022/05/11 12:46:13;;;;;;;0.20;0.20;;;24.30;82.40;;;;;;5073790;28;20051;-77
2022/05/11 12:48:53;;;;;;;0.20;0.20;;;24.20;81.70;;;;;;5073833;28;20048;-76
2022/05/11 12:51:35;;;;;;;0.30;0.30;;;24.20;82.30;;;;;;5073435;28;20036;-77
2022/05/11 12:54:05;;;;;;;0.20;0.20;;;24.30;82.90;;;;;;5073844;28;20052;-76
2022/05/11 12:56:34;;;;;;;0.20;0.20;;;24.30;82.00;;;;;;5073556;28;20041;-76
2022/05/11 12:59:04;;;;;;;0.20;0.20;;;24.20;81.80;;;;;;5073873;28;20396;-76
2022/05/11 13:01:32;;;;;;;0.20;0.20;;;24.20;82.30;;;;;;5073482;28;20476;-77
2022/05/11 13:04:00;;;;;;;0.38;0.38;;;24.20;82.50;;;;;;5073946;28;20408;-76
2022/05/11 13:06:41;;;;;;;0.20;0.20;;;24.40;83.10;;;;;;5073557;28;20439;-77
2022/05/11 13:09:14;;;;;;;0.20;0.20;;;24.60;80.70;;;;;;5073558;28;20052;-77
2022/05/11 13:11:40;;;;;;;0.20;0.20;;;24.50;80.80;;;;;;5073255;28;20057;-77
2022/05/11 13:14:16;;;;;;;0.20;0.20;;;24.50;79.90;;;;;;5072345;28;20048;-77
2022/05/11 13:16:47;;;;;;;0.20;0.20;;;24.20;80.80;;;;;;5073881;28;20086;-76
2022/05/11 13:19:32;;;;;;;0.20;0.20;;;24.10;82.50;;;;;;5073526;28;20051;-78
2022/05/11 13:22:00;;;;;;;0.20;0.20;;;24.20;81.30;;;;;;5073391;28;20044;-78
2022/05/11 13:24:50;;;;;;;0.52;0.52;;;24.20;81.90;;;;;;5073368;28;20051;-76
2022/05/11 13:27:36;;;;;;;0.20;0.20;;;24.40;81.10;;;;;;5073554;28;20047;-77
2022/05/11 13:30:16;;;;;;;0.20;0.20;;;24.40;80.40;;;;;;5073571;28;20067;-77
2022/05/11 13:32:48;;;;;;;0.17;0.17;;;24.40;80.50;;;;;;5072892;28;20498;-77
2022/05/11 13:35:20;;;;;;;3.95;0.30;;;24.30;79.30;;;;;;5073242;28;20085;-78
2022/05/11 13:38:12;;;;;;;0.20;0.20;;;24.30;79.40;;;;;;5073253;28;20052;-77
2022/05/11 13:40:39;;;;;;;0.20;0.20;;;24.10;79.10;;;;;;5071176;28;20056;-78
2022/05/11 13:43:19;;;;;;;0.20;0.20;;;24.20;80.50;;;;;;5073377;28;20037;-76
2022/05/11 13:46:04;;;;;;;0.20;0.20;;;24.30;81.00;;;;;;5073162;28;20133;-77
2022/05/11 13:48:39;;;;;;;0.20;0.20;;;24.50;82.50;;;;;;5073417;28;20048;-76
2022/05/11 13:51:07;;;;;;;0.20;0.20;;;24.30;80.60;;;;;;5072881;28;20052;-76